Time;durP1;ratioP1;P1;durP2;ratioP2;P2;SDS_P1;SDS_P2;PMS_P1;PMS_P2;Temp;Humidity;BMP_temperature;BMP_pressure;BME280_temperature;BME280_humidity;BME280_pressure;Samples;Min_cycle;Max_cycle;Signal;HPM_P1;HPM_P2
2021/01/26 00:00:50;;;;;;;1.70;1.60;;;2.60;98.20;;;;;;4970819;28;20992;-78
2021/01/26 00:03:17;;;;;;;1.67;1.40;;;2.60;98.20;;;;;;4973093;28;20918;-77
2021/01/26 00:05:44;;;;;;;1.73;1.63;;;2.60;98.20;;;;;;4986451;28;20991;-77
2021/01/26 00:08:10;;;;;;;1.70;1.47;;;2.60;98.20;;;;;;4972597;28;20470;-78
2021/01/26 00:10:38;;;;;;;1.63;1.40;;;2.70;98.20;;;;;;4970728;28;20497;-78
2021/01/26 00:13:05;;;;;;;1.60;1.40;;;2.70;98.20;;;;;;4971948;28;20490;-78
2021/01/26 00:15:32;;;;;;;1.63;1.40;;;2.70;98.20;;;;;;4971446;28;20579;-78
2021/01/26 00:17:58;;;;;;;1.60;1.40;;;2.70;98.20;;;;;;4971271;28;20501;-77
2021/01/26 00:20:25;;;;;;;1.63;1.50;;;2.70;98.20;;;;;;4970838;28;20490;-78
2021/01/26 00:22:52;;;;;;;1.70;1.50;;;2.70;98.20;;;;;;4971680;28;20577;-78
2021/01/26 00:25:22;;;;;;;1.70;1.50;;;2.70;98.20;;;;;;4964186;28;20520;-78
2021/01/26 00:27:49;;;;;;;1.70;1.40;;;2.80;98.20;;;;;;4967346;28;20973;-78
2021/01/26 00:30:19;;;;;;;2.30;2.10;;;2.80;98.20;;;;;;4971119;28;20524;-77
2021/01/26 00:32:45;;;;;;;1.70;1.60;;;2.80;98.20;;;;;;4965942;28;20948;-77
2021/01/26 00:35:14;;;;;;;3.03;2.83;;;2.80;98.20;;;;;;4969825;28;20497;-78
2021/01/26 00:37:41;;;;;;;14.03;6.20;;;2.80;98.20;;;;;;4970547;28;20496;-79
2021/01/26 00:40:09;;;;;;;1.67;1.40;;;2.80;98.20;;;;;;4970640;28;20501;-78
2021/01/26 00:42:35;;;;;;;1.70;1.50;;;2.80;98.20;;;;;;4977293;28;20528;-78
2021/01/26 00:45:04;;;;;;;1.60;1.40;;;2.80;98.20;;;;;;4971302;28;20541;-78
2021/01/26 00:47:30;;;;;;;1.60;1.40;;;2.80;98.20;;;;;;4965173;28;20808;-78
2021/01/26 00:49:57;;;;;;;1.70;1.50;;;2.80;98.20;;;;;;4969674;28;21039;-78
2021/01/26 00:52:23;;;;;;;1.67;1.50;;;2.80;98.20;;;;;;4969953;28;20500;-78
2021/01/26 00:54:50;;;;;;;1.67;1.40;;;2.80;98.20;;;;;;4971406;28;20498;-78
2021/01/26 00:57:19;;;;;;;1.67;1.40;;;2.80;98.20;;;;;;4971104;28;20470;-75
2021/01/26 00:59:46;;;;;;;1.63;1.47;;;2.90;98.20;;;;;;4970210;28;20570;-78
2021/01/26 01:02:14;;;;;;;1.70;1.53;;;2.90;98.20;;;;;;4971228;28;20492;-78
2021/01/26 01:04:40;;;;;;;1.70;1.50;;;2.90;98.20;;;;;;4971131;28;20474;-77
2021/01/26 01:07:07;;;;;;;1.60;1.40;;;2.90;98.20;;;;;;4971397;28;20907;-77
2021/01/26 01:09:34;;;;;;;1.60;1.40;;;2.90;98.20;;;;;;4970716;28;20610;-78
2021/01/26 01:12:00;;;;;;;1.63;1.40;;;2.90;98.20;;;;;;4977592;28;20856;-77
2021/01/26 01:14:27;;;;;;;1.70;1.50;;;2.90;98.20;;;;;;4971138;28;20466;-78
2021/01/26 01:16:54;;;;;;;2.23;2.03;;;3.00;98.20;;;;;;4971573;28;20466;-78
2021/01/26 01:19:21;;;;;;;1.67;1.40;;;3.00;98.20;;;;;;4972203;28;20549;-78
2021/01/26 01:21:48;;;;;;;1.67;1.40;;;3.00;98.20;;;;;;4968079;28;20573;-77
2021/01/26 01:24:14;;;;;;;1.70;1.53;;;3.00;98.20;;;;;;4971745;28;20470;-78
2021/01/26 01:26:42;;;;;;;1.63;1.37;;;3.00;98.20;;;;;;4971854;28;20480;-77
2021/01/26 01:29:10;;;;;;;1.70;1.60;;;3.00;98.20;;;;;;4972392;28;20925;-78
2021/01/26 01:31:37;;;;;;;1.60;1.30;;;3.00;98.20;;;;;;4978219;28;20498;-80
2021/01/26 01:34:06;;;;;;;1.67;1.40;;;3.00;98.20;;;;;;4972200;28;20503;-79
2021/01/26 01:36:33;;;;;;;1.70;1.50;;;3.00;98.20;;;;;;4972306;28;20524;-80
2021/01/26 01:39:00;;;;;;;1.60;1.40;;;3.00;98.20;;;;;;4971727;28;20497;-78
2021/01/26 01:41:30;;;;;;;1.63;1.40;;;3.00;98.20;;;;;;4970739;28;20985;-79
2021/01/26 01:43:57;;;;;;;1.70;1.50;;;3.00;98.20;;;;;;4970184;28;20721;-79
2021/01/26 01:46:24;;;;;;;1.70;1.50;;;3.00;98.20;;;;;;4970656;28;20462;-80
2021/01/26 01:48:54;;;;;;;1.60;1.40;;;3.00;98.20;;;;;;4971971;28;20505;-79
2021/01/26 01:51:24;;;;;;;1.63;1.40;;;3.00;98.20;;;;;;4974668;28;20517;-79
2021/01/26 01:53:55;;;;;;;2.33;2.13;;;2.90;98.20;;;;;;4973784;28;20509;-77
2021/01/26 01:56:29;;;;;;;1.70;1.50;;;2.90;98.20;;;;;;4978494;28;21043;-78
2021/01/26 01:59:00;;;;;;;1.70;1.50;;;2.90;98.20;;;;;;4973514;28;20556;-78
2021/01/26 02:01:29;;;;;;;1.67;1.50;;;2.90;98.20;;;;;;4972706;28;20557;-78
2021/01/26 02:03:59;;;;;;;1.63;1.50;;;2.90;98.20;;;;;;4971599;28;20477;-79
2021/01/26 02:06:31;;;;;;;1.70;1.50;;;2.90;98.20;;;;;;4973961;28;20858;-77
2021/01/26 02:09:04;;;;;;;1.70;1.60;;;2.90;98.20;;;;;;4974032;28;20498;-78
2021/01/26 02:11:30;;;;;;;1.70;1.60;;;2.90;98.20;;;;;;4972400;28;20666;-78
2021/01/26 02:13:57;;;;;;;1.70;1.50;;;2.90;98.20;;;;;;4973359;28;20486;-79
2021/01/26 02:16:34;;;;;;;1.70;1.53;;;2.90;98.20;;;;;;4973342;28;20909;-78
2021/01/26 02:19:31;;;;;;;1.70;1.60;;;2.90;98.20;;;;;;4973498;28;20553;-79
2021/01/26 02:22:44;;;;;;;1.67;1.40;;;2.90;98.20;;;;;;4973467;28;20482;-78
2021/01/26 02:25:56;;;;;;;1.67;1.40;;;2.90;98.20;;;;;;4973810;28;20466;-78
2021/01/26 02:28:59;;;;;;;1.67;1.57;;;2.90;98.20;;;;;;4955209;28;20541;-78
2021/01/26 02:31:40;;;;;;;15.60;6.30;;;2.90;98.20;;;;;;4970589;28;20489;-78
2021/01/26 02:34:42;;;;;;;4.17;3.77;;;2.90;98.20;;;;;;4971111;28;20466;-78
2021/01/26 02:37:52;;;;;;;1.60;1.40;;;2.90;98.20;;;;;;4901438;29;20461;-79
2021/01/26 02:40:23;;;;;;;1.60;1.40;;;2.90;98.20;;;;;;4974728;28;20482;-78
2021/01/26 02:43:01;;;;;;;1.67;1.40;;;2.90;98.20;;;;;;4971938;28;20545;-78
2021/01/26 02:45:33;;;;;;;1.67;1.50;;;2.90;98.20;;;;;;4972807;28;20869;-78
2021/01/26 02:48:32;;;;;;;1.60;1.40;;;3.00;98.20;;;;;;4971031;28;20462;-79
2021/01/26 02:51:04;;;;;;;1.60;1.40;;;2.90;98.20;;;;;;4972182;28;20561;-78
2021/01/26 02:53:36;;;;;;;1.70;1.50;;;2.90;98.20;;;;;;4975134;28;20572;-78
2021/01/26 02:56:17;;;;;;;1.70;1.40;;;2.90;98.20;;;;;;4978986;28;20487;-78
2021/01/26 02:58:51;;;;;;;1.60;1.40;;;3.00;98.20;;;;;;4963207;28;20969;-79
2021/01/26 03:01:19;;;;;;;1.70;1.50;;;3.00;98.20;;;;;;4972378;28;20557;-78
2021/01/26 03:03:50;;;;;;;1.60;1.40;;;3.00;98.20;;;;;;4973691;28;20454;-79
2021/01/26 03:06:20;;;;;;;3.80;3.50;;;3.00;98.20;;;;;;4972765;28;20500;-79
2021/01/26 03:08:53;;;;;;;1.70;1.50;;;3.00;98.20;;;;;;4980847;28;20458;-80
2021/01/26 03:11:27;;;;;;;1.60;1.40;;;3.00;98.20;;;;;;4978889;28;20939;-79
2021/01/26 03:13:58;;;;;;;1.60;1.50;;;3.00;98.20;;;;;;4974029;28;20544;-78
2021/01/26 03:16:28;;;;;;;1.70;1.60;;;3.00;98.20;;;;;;4974015;28;20462;-77
2021/01/26 03:19:00;;;;;;;1.70;1.50;;;3.00;98.20;;;;;;4973392;28;20909;-78
2021/01/26 03:21:29;;;;;;;1.63;1.40;;;3.00;98.20;;;;;;4972988;28;20565;-79
2021/01/26 03:23:58;;;;;;;1.60;1.40;;;3.00;98.20;;;;;;4973967;28;20485;-79
2021/01/26 03:26:27;;;;;;;1.70;1.50;;;3.00;98.20;;;;;;4973733;28;20486;-78
2021/01/26 03:28:58;;;;;;;1.67;1.50;;;3.00;98.20;;;;;;4973390;28;20517;-79
2021/01/26 03:31:30;;;;;;;2.13;1.93;;;3.00;98.20;;;;;;4973038;28;20500;-79
2021/01/26 03:33:57;;;;;;;1.70;1.40;;;3.00;98.20;;;;;;4973146;28;20493;-79
2021/01/26 03:36:23;;;;;;;1.60;1.40;;;3.00;98.20;;;;;;4973717;28;20466;-78
2021/01/26 03:38:52;;;;;;;1.70;1.50;;;3.00;98.20;;;;;;4973175;28;20476;-78
2021/01/26 03:41:19;;;;;;;1.63;1.40;;;3.00;98.20;;;;;;4973571;28;20799;-77
2021/01/26 03:43:47;;;;;;;1.67;1.40;;;3.00;98.20;;;;;;4973643;28;20833;-78
2021/01/26 03:46:23;;;;;;;1.67;1.40;;;3.00;98.20;;;;;;4973858;28;20557;-79
2021/01/26 03:49:06;;;;;;;1.60;1.40;;;3.00;98.20;;;;;;4973504;28;20497;-80
2021/01/26 03:52:00;;;;;;;1.60;1.40;;;3.00;98.20;;;;;;4978582;28;20525;-78
2021/01/26 03:54:30;;;;;;;1.60;1.33;;;3.00;98.20;;;;;;4975499;28;20465;-79
2021/01/26 03:57:23;;;;;;;1.60;1.33;;;3.00;98.20;;;;;;4973128;28;20549;-77
2021/01/26 04:00:06;;;;;;;1.70;1.50;;;3.10;98.20;;;;;;4969634;28;20508;-78
2021/01/26 04:02:44;;;;;;;1.70;1.57;;;3.10;98.20;;;;;;4972574;28;20902;-78
2021/01/26 04:05:20;;;;;;;1.60;1.40;;;3.00;98.20;;;;;;4970443;28;20541;-78
2021/01/26 04:07:51;;;;;;;1.70;1.50;;;3.00;98.20;;;;;;4971205;28;20469;-79
2021/01/26 04:10:22;;;;;;;1.60;1.50;;;3.00;98.20;;;;;;4964411;28;20984;-79
2021/01/26 04:12:59;;;;;;;1.63;1.40;;;3.00;98.20;;;;;;4970954;28;20548;-78
2021/01/26 04:15:33;;;;;;;1.60;1.30;;;3.00;98.20;;;;;;4972341;28;20548;-79
2021/01/26 04:17:59;;;;;;;1.60;1.30;;;3.00;98.20;;;;;;4968503;28;20533;-78
2021/01/26 04:20:31;;;;;;;1.63;1.40;;;3.00;98.20;;;;;;4969643;28;20564;-79
2021/01/26 04:22:58;;;;;;;1.60;1.30;;;3.00;98.20;;;;;;4972888;28;20515;-78
2021/01/26 04:25:31;;;;;;;1.60;1.30;;;2.90;98.20;;;;;;4972093;28;20542;-79
2021/01/26 04:27:58;;;;;;;1.60;1.40;;;3.00;98.20;;;;;;4971319;28;21017;-79
2021/01/26 04:30:26;;;;;;;1.70;1.47;;;2.90;98.20;;;;;;4971462;28;20513;-80
2021/01/26 04:32:57;;;;;;;1.70;1.50;;;2.90;98.20;;;;;;4971700;28;20518;-79
2021/01/26 04:35:23;;;;;;;1.60;1.30;;;2.90;98.20;;;;;;4971393;28;20470;-80
2021/01/26 04:37:50;;;;;;;1.70;1.50;;;2.90;98.20;;;;;;4967776;28;20532;-79
2021/01/26 04:40:18;;;;;;;1.63;1.40;;;2.90;98.20;;;;;;4971322;28;20574;-79
2021/01/26 04:42:46;;;;;;;1.70;1.60;;;2.90;98.20;;;;;;4971721;28;20497;-79
2021/01/26 04:45:17;;;;;;;1.70;1.60;;;2.90;98.20;;;;;;4971608;28;20462;-78
2021/01/26 04:47:48;;;;;;;1.70;1.60;;;2.90;98.20;;;;;;4969758;28;20556;-78
2021/01/26 04:50:25;;;;;;;1.67;1.40;;;2.90;98.20;;;;;;4967335;28;20644;-79
2021/01/26 04:53:12;;;;;;;1.63;1.40;;;2.90;98.20;;;;;;4966074;28;20496;-79
2021/01/26 04:55:50;;;;;;;1.70;1.50;;;2.90;98.20;;;;;;4963609;28;20504;-76
2021/01/26 04:58:30;;;;;;;1.70;1.47;;;2.90;98.20;;;;;;4970773;28;20936;-76
2021/01/26 05:01:09;;;;;;;1.70;1.50;;;2.90;98.20;;;;;;4968881;28;20596;-78
2021/01/26 05:03:54;;;;;;;1.70;1.60;;;2.90;98.20;;;;;;4969483;28;20562;-76
2021/01/26 05:06:23;;;;;;;1.70;1.50;;;3.00;98.20;;;;;;4967846;28;20466;-78
2021/01/26 05:08:53;;;;;;;1.63;1.40;;;2.90;98.20;;;;;;4969823;28;20498;-78
2021/01/26 05:11:23;;;;;;;1.70;1.53;;;3.00;98.20;;;;;;4969332;28;21019;-79
2021/01/26 05:13:54;;;;;;;1.70;1.50;;;3.00;98.20;;;;;;4970691;28;20500;-78
2021/01/26 05:16:27;;;;;;;1.60;1.40;;;3.00;98.20;;;;;;4969925;28;20544;-78
2021/01/26 05:18:59;;;;;;;1.70;1.50;;;3.00;98.20;;;;;;4974179;28;20482;-79
2021/01/26 05:21:32;;;;;;;1.70;1.60;;;3.00;98.20;;;;;;4976582;28;20520;-77
2021/01/26 05:24:05;;;;;;;1.70;1.57;;;3.00;98.20;;;;;;4973946;28;20493;-78
2021/01/26 05:26:32;;;;;;;1.70;1.50;;;2.90;98.20;;;;;;4967918;28;20490;-78
2021/01/26 05:28:58;;;;;;;1.60;1.40;;;2.90;98.20;;;;;;4969811;28;20516;-79
2021/01/26 05:31:28;;;;;;;1.67;1.50;;;2.90;98.20;;;;;;4968779;28;20581;-79
2021/01/26 05:34:00;;;;;;;1.70;1.60;;;2.90;98.20;;;;;;4969230;28;20493;-78
2021/01/26 05:36:26;;;;;;;1.70;1.40;;;2.80;98.20;;;;;;4970732;28;20493;-79
2021/01/26 05:38:53;;;;;;;1.70;1.60;;;2.80;98.20;;;;;;4969794;28;20850;-79
2021/01/26 05:41:20;;;;;;;1.60;1.33;;;2.70;98.20;;;;;;4968747;28;20486;-78
2021/01/26 05:43:51;;;;;;;1.60;1.40;;;2.70;98.20;;;;;;4969553;28;20618;-78
2021/01/26 05:46:39;;;;;;;1.63;1.40;;;2.70;98.20;;;;;;4968734;28;20498;-78
2021/01/26 05:49:07;;;;;;;1.67;1.43;;;2.70;98.20;;;;;;4971342;28;20472;-78
2021/01/26 05:51:35;;;;;;;1.60;1.40;;;2.70;98.20;;;;;;4970119;28;20517;-80
2021/01/26 05:54:06;;;;;;;1.70;1.50;;;2.70;98.20;;;;;;4972615;28;20470;-79
2021/01/26 05:56:34;;;;;;;1.70;1.57;;;2.70;98.20;;;;;;4979787;28;20519;-79
2021/01/26 05:59:19;;;;;;;1.67;1.40;;;2.70;98.20;;;;;;4973205;28;20470;-77
2021/01/26 06:01:46;;;;;;;1.70;1.43;;;2.80;98.20;;;;;;4964817;28;20834;-79
2021/01/26 06:04:29;;;;;;;1.67;1.40;;;2.80;98.20;;;;;;4969827;28;20481;-78
2021/01/26 06:06:57;;;;;;;1.60;1.40;;;2.80;98.20;;;;;;4971767;28;20472;-79
2021/01/26 06:09:33;;;;;;;1.70;1.60;;;2.80;98.20;;;;;;4970631;28;20462;-77
2021/01/26 06:12:09;;;;;;;1.67;1.40;;;2.80;98.20;;;;;;4969049;28;20584;-79
2021/01/26 06:14:36;;;;;;;1.70;1.50;;;2.90;98.20;;;;;;4969650;28;20512;-79
2021/01/26 06:17:10;;;;;;;1.67;1.47;;;2.80;98.20;;;;;;4970003;28;20470;-79
2021/01/26 06:19:38;;;;;;;1.70;1.50;;;2.80;98.20;;;;;;4968991;28;20465;-79
2021/01/26 06:22:08;;;;;;;1.70;1.40;;;2.80;98.20;;;;;;4970856;28;20510;-79
2021/01/26 06:24:37;;;;;;;1.63;1.40;;;2.80;98.20;;;;;;4969726;28;20489;-78
2021/01/26 06:27:34;;;;;;;2.33;2.17;;;2.80;98.20;;;;;;4970272;28;20851;-78
2021/01/26 06:30:13;;;;;;;1.80;1.70;;;2.80;98.20;;;;;;4970627;28;20462;-78
2021/01/26 06:32:54;;;;;;;1.63;1.43;;;2.70;98.20;;;;;;4969350;28;20580;-78
2021/01/26 06:35:33;;;;;;;2.37;2.17;;;2.70;98.20;;;;;;4971150;28;20533;-78
2021/01/26 06:38:16;;;;;;;1.60;1.40;;;2.70;98.20;;;;;;4971947;28;20896;-78
2021/01/26 06:40:53;;;;;;;1.60;1.50;;;2.70;98.20;;;;;;4974381;28;20497;-79
2021/01/26 06:43:31;;;;;;;1.63;1.40;;;2.60;98.20;;;;;;4973072;28;20556;-78
2021/01/26 06:46:09;;;;;;;1.77;1.67;;;2.60;98.20;;;;;;4974123;28;20839;-79
2021/01/26 06:49:07;;;;;;;1.67;1.47;;;2.60;98.20;;;;;;4973477;28;20647;-79
2021/01/26 06:52:03;;;;;;;1.70;1.60;;;2.60;98.20;;;;;;4973056;28;20526;-79
2021/01/26 06:54:51;;;;;;;1.70;1.50;;;2.60;98.20;;;;;;4969059;28;21057;-79
2021/01/26 06:57:43;;;;;;;1.70;1.43;;;2.60;98.20;;;;;;4972316;28;20872;-79
2021/01/26 07:00:43;;;;;;;1.70;1.60;;;2.70;98.20;;;;;;4973607;28;21008;-79
2021/01/26 07:03:49;;;;;;;1.60;1.40;;;2.70;98.20;;;;;;4942001;28;20524;-80
2021/01/26 07:06:34;;;;;;;1.60;1.30;;;2.70;98.20;;;;;;4972698;28;20454;-77
2021/01/26 07:09:17;;;;;;;1.60;1.50;;;2.80;98.20;;;;;;4973357;28;20563;-77
2021/01/26 07:12:02;;;;;;;1.70;1.50;;;2.80;98.20;;;;;;4973707;28;20589;-79
2021/01/26 07:15:00;;;;;;;1.70;1.53;;;2.80;98.20;;;;;;4974341;28;20858;-79
2021/01/26 07:17:37;;;;;;;1.70;1.60;;;2.80;98.20;;;;;;4954953;28;20473;-79
2021/01/26 07:20:17;;;;;;;1.70;1.50;;;2.80;98.20;;;;;;4983823;28;20505;-80
2021/01/26 07:23:04;;;;;;;1.70;1.60;;;2.80;98.20;;;;;;4977551;28;20477;-80
2021/01/26 07:25:46;;;;;;;1.70;1.47;;;2.80;98.20;;;;;;4982809;28;20465;-79
2021/01/26 07:29:00;;;;;;;1.70;1.40;;;2.70;98.20;;;;;;4981529;28;20462;-79
2021/01/26 07:31:33;;;;;;;1.70;1.40;;;2.70;98.20;;;;;;4982681;28;20481;-79
2021/01/26 07:34:08;;;;;;;1.63;1.40;;;2.70;98.20;;;;;;4977846;28;20466;-78
2021/01/26 07:36:38;;;;;;;1.70;1.40;;;2.70;98.20;;;;;;4975831;28;20488;-81
2021/01/26 07:39:12;;;;;;;1.60;1.40;;;2.70;98.20;;;;;;4976882;28;20967;-79
2021/01/26 07:41:47;;;;;;;1.70;1.50;;;2.70;98.20;;;;;;4976154;28;20560;-80
2021/01/26 07:44:23;;;;;;;1.70;1.57;;;2.70;98.20;;;;;;4982002;28;20450;-79
2021/01/26 07:46:56;;;;;;;1.67;1.40;;;2.70;98.20;;;;;;4989073;28;20468;-78
2021/01/26 07:49:29;;;;;;;1.60;1.40;;;2.80;98.20;;;;;;4988006;28;20465;-80
2021/01/26 07:52:01;;;;;;;1.77;1.67;;;2.80;98.20;;;;;;4980951;28;20496;-79
2021/01/26 07:54:34;;;;;;;1.70;1.50;;;2.80;98.20;;;;;;4983569;28;20476;-80
2021/01/26 07:57:05;;;;;;;2.10;1.90;;;2.80;98.20;;;;;;4979447;28;20907;-79
2021/01/26 07:59:36;;;;;;;1.73;1.63;;;2.80;98.20;;;;;;4981138;28;20820;-79
2021/01/26 08:02:12;;;;;;;1.70;1.60;;;2.80;98.20;;;;;;4971457;28;20520;-78
2021/01/26 08:04:41;;;;;;;1.67;1.50;;;2.80;98.20;;;;;;4974995;28;20472;-78
2021/01/26 08:07:08;;;;;;;1.67;1.40;;;2.80;98.20;;;;;;4971352;28;20892;-80
2021/01/26 08:09:39;;;;;;;1.63;1.40;;;2.80;98.20;;;;;;4972799;28;20490;-78
2021/01/26 08:12:09;;;;;;;1.70;1.50;;;2.80;98.20;;;;;;4971784;28;20526;-79
2021/01/26 08:14:41;;;;;;;1.80;1.70;;;2.80;98.20;;;;;;4976623;28;20458;-78
2021/01/26 08:17:11;;;;;;;1.70;1.50;;;2.90;98.20;;;;;;4971695;28;20541;-80
2021/01/26 08:19:43;;;;;;;1.70;1.50;;;2.90;98.20;;;;;;4974939;28;20461;-78
2021/01/26 08:22:22;;;;;;;1.70;1.47;;;2.90;98.20;;;;;;4979358;28;20624;-78
2021/01/26 08:24:59;;;;;;;1.67;1.40;;;2.90;98.20;;;;;;4978044;28;20469;-77
2021/01/26 08:27:53;;;;;;;1.67;1.40;;;3.00;98.20;;;;;;4972698;28;20622;-78
2021/01/26 08:30:38;;;;;;;1.60;1.40;;;3.00;98.20;;;;;;4971648;28;20528;-77
2021/01/26 08:33:07;;;;;;;1.60;1.43;;;3.00;98.20;;;;;;4968158;28;20478;-77
2021/01/26 08:35:44;;;;;;;1.70;1.50;;;3.00;98.20;;;;;;4970543;28;20466;-78
2021/01/26 08:38:12;;;;;;;1.70;1.57;;;3.00;98.20;;;;;;4972115;28;20528;-79
2021/01/26 08:41:02;;;;;;;1.70;1.53;;;3.00;98.20;;;;;;4970682;28;20569;-80
2021/01/26 08:43:48;;;;;;;1.63;1.40;;;3.00;98.20;;;;;;4970513;28;20458;-80
2021/01/26 08:46:34;;;;;;;1.67;1.43;;;3.00;98.20;;;;;;4967940;28;20551;-78
2021/01/26 08:49:04;;;;;;;1.63;1.40;;;3.00;98.20;;;;;;4969849;28;20465;-78
2021/01/26 08:51:34;;;;;;;1.60;1.40;;;3.00;98.20;;;;;;4971191;28;20485;-79
2021/01/26 08:54:03;;;;;;;1.60;1.40;;;3.00;98.20;;;;;;4970894;28;20462;-78
2021/01/26 08:56:35;;;;;;;1.70;1.50;;;3.00;98.20;;;;;;4974630;28;20568;-79
2021/01/26 08:59:06;;;;;;;1.63;1.40;;;3.00;98.20;;;;;;4970647;28;20564;-78
2021/01/26 09:01:49;;;;;;;1.70;1.40;;;3.10;98.20;;;;;;4966926;28;20494;-78
2021/01/26 09:04:42;;;;;;;1.60;1.40;;;3.10;98.20;;;;;;4968008;28;20628;-77
2021/01/26 09:07:09;;;;;;;1.70;1.50;;;3.10;98.20;;;;;;4969390;28;20976;-78
2021/01/26 09:09:50;;;;;;;1.60;1.50;;;3.10;98.20;;;;;;4969287;28;20489;-79
2021/01/26 09:12:22;;;;;;;49.50;15.00;;;3.10;98.20;;;;;;4967205;28;20492;-78
2021/01/26 09:14:53;;;;;;;1.63;1.40;;;3.10;98.20;;;;;;4967317;28;20508;-78
2021/01/26 09:17:27;;;;;;;1.63;1.43;;;3.10;98.20;;;;;;4969609;28;20894;-78
2021/01/26 09:19:56;;;;;;;1.70;1.60;;;3.20;98.20;;;;;;4963384;28;20466;-79
2021/01/26 09:22:25;;;;;;;1.67;1.40;;;3.20;98.20;;;;;;4966386;28;20909;-75
2021/01/26 09:25:00;;;;;;;1.63;1.43;;;3.20;98.20;;;;;;4968044;28;20524;-76
2021/01/26 09:27:28;;;;;;;1.60;1.30;;;3.20;98.20;;;;;;4966774;28;20838;-76
2021/01/26 09:30:17;;;;;;;1.60;1.40;;;3.20;98.20;;;;;;4964769;28;20844;-77
2021/01/26 09:32:47;;;;;;;1.67;1.50;;;3.20;98.20;;;;;;4965948;28;20653;-77
2021/01/26 09:35:24;;;;;;;1.70;1.50;;;3.20;98.20;;;;;;4967043;28;20564;-77
2021/01/26 09:38:00;;;;;;;1.70;1.50;;;3.20;98.20;;;;;;4964676;28;20462;-77
2021/01/26 09:40:27;;;;;;;1.70;1.60;;;3.20;98.20;;;;;;4966782;28;20967;-76
2021/01/26 09:43:06;;;;;;;1.67;1.40;;;3.20;98.20;;;;;;4967543;28;20462;-75
2021/01/26 09:45:33;;;;;;;1.60;1.40;;;3.30;98.20;;;;;;4966456;28;20572;-77
2021/01/26 09:48:00;;;;;;;1.80;1.70;;;3.30;98.20;;;;;;4966349;28;20470;-76
2021/01/26 09:50:28;;;;;;;1.67;1.50;;;3.40;98.20;;;;;;4969439;28;20492;-76
2021/01/26 09:52:57;;;;;;;1.70;1.47;;;3.40;98.20;;;;;;4970064;28;21314;-77
2021/01/26 09:55:25;;;;;;;5.30;4.30;;;3.40;98.20;;;;;;4966583;28;20477;-76
2021/01/26 09:57:55;;;;;;;1.63;1.40;;;3.40;98.20;;;;;;4966867;28;20977;-75
2021/01/26 10:00:25;;;;;;;1.70;1.50;;;3.40;98.20;;;;;;4975850;28;21056;-76
2021/01/26 10:02:54;;;;;;;1.60;1.40;;;3.40;98.20;;;;;;4971630;28;20845;-76
2021/01/26 10:05:23;;;;;;;1.70;1.60;;;3.40;98.20;;;;;;4966741;28;20498;-76
2021/01/26 10:08:10;;;;;;;1.70;1.60;;;3.50;98.20;;;;;;4966711;28;21044;-76
2021/01/26 10:10:39;;;;;;;1.60;1.33;;;3.50;98.20;;;;;;4966386;28;20851;-76
2021/01/26 10:13:22;;;;;;;1.70;1.40;;;3.50;98.20;;;;;;4969395;28;20551;-77
2021/01/26 10:15:49;;;;;;;1.70;1.50;;;3.50;98.20;;;;;;4967539;28;20568;-76
2021/01/26 10:18:18;;;;;;;1.60;1.50;;;3.50;98.20;;;;;;4971070;28;20462;-77
2021/01/26 10:20:58;;;;;;;1.70;1.50;;;3.50;98.20;;;;;;4969348;28;20500;-77
2021/01/26 10:23:28;;;;;;;1.70;1.53;;;3.50;98.20;;;;;;4975981;28;20492;-77
2021/01/26 10:26:14;;;;;;;1.70;1.50;;;3.50;98.20;;;;;;4974832;28;20489;-77
2021/01/26 10:29:17;;;;;;;1.60;1.40;;;3.60;98.20;;;;;;4962975;28;20505;-76
2021/01/26 10:31:48;;;;;;;1.60;1.30;;;3.60;98.20;;;;;;4968153;28;20493;-77
2021/01/26 10:34:21;;;;;;;1.60;1.30;;;3.60;98.20;;;;;;4970632;28;20531;-79
2021/01/26 10:36:48;;;;;;;1.63;1.40;;;3.60;98.20;;;;;;4971053;28;20470;-77
2021/01/26 10:39:24;;;;;;;1.70;1.57;;;3.70;98.20;;;;;;4970324;28;20469;-77
2021/01/26 10:42:01;;;;;;;1.70;1.50;;;3.70;98.20;;;;;;4964533;28;20955;-78
2021/01/26 10:44:27;;;;;;;2.60;2.40;;;3.70;98.20;;;;;;4968771;28;20569;-76
2021/01/26 10:46:54;;;;;;;1.70;1.40;;;3.70;98.20;;;;;;4969129;28;20617;-76
2021/01/26 10:49:30;;;;;;;1.60;1.40;;;3.70;98.20;;;;;;4968496;28;20470;-77
2021/01/26 10:51:57;;;;;;;1.70;1.50;;;3.70;98.20;;;;;;4968322;28;20492;-77
2021/01/26 10:54:24;;;;;;;1.70;1.60;;;3.70;98.20;;;;;;4968571;28;20469;-77
2021/01/26 10:56:51;;;;;;;1.60;1.30;;;3.70;98.20;;;;;;4969948;28;20462;-77
2021/01/26 10:59:18;;;;;;;1.67;1.47;;;3.70;98.20;;;;;;4969350;28;20553;-78
2021/01/26 11:01:45;;;;;;;1.70;1.50;;;3.70;98.20;;;;;;4967924;28;20520;-77
2021/01/26 11:04:12;;;;;;;1.63;1.40;;;3.70;98.20;;;;;;4969272;28;21276;-77
2021/01/26 11:06:40;;;;;;;1.60;1.40;;;3.70;98.20;;;;;;4969695;28;20496;-78
2021/01/26 11:09:08;;;;;;;1.67;1.57;;;3.70;98.20;;;;;;4968776;28;20977;-77
2021/01/26 11:11:35;;;;;;;1.90;1.80;;;3.70;98.20;;;;;;4968013;28;20893;-77
2021/01/26 11:14:03;;;;;;;1.70;1.50;;;3.80;98.20;;;;;;4966843;28;20570;-77
2021/01/26 11:16:30;;;;;;;1.70;1.60;;;3.80;98.20;;;;;;4968516;28;20509;-77
2021/01/26 11:18:57;;;;;;;2.80;2.60;;;3.80;98.20;;;;;;4968971;28;20469;-76
2021/01/26 11:21:24;;;;;;;1.67;1.40;;;3.90;98.20;;;;;;4967588;28;21104;-79
2021/01/26 11:23:52;;;;;;;1.63;1.40;;;3.90;98.20;;;;;;4968654;28;20470;-78
2021/01/26 11:26:20;;;;;;;1.60;1.30;;;3.90;98.20;;;;;;4970940;28;20470;-77
2021/01/26 11:28:48;;;;;;;1.70;1.40;;;3.90;98.20;;;;;;4977235;28;20490;-78
2021/01/26 11:31:15;;;;;;;1.70;1.50;;;3.90;98.20;;;;;;4978897;28;20521;-78
2021/01/26 11:33:42;;;;;;;1.67;1.43;;;3.90;98.20;;;;;;4974878;28;20524;-79
2021/01/26 11:36:09;;;;;;;1.60;1.40;;;3.90;98.20;;;;;;4970192;28;20466;-78
2021/01/26 11:38:35;;;;;;;1.70;1.40;;;4.00;98.20;;;;;;4970373;28;20498;-78
2021/01/26 11:41:05;;;;;;;1.60;1.30;;;4.00;98.20;;;;;;4963635;28;20493;-80
2021/01/26 11:43:32;;;;;;;1.70;1.50;;;4.00;98.20;;;;;;4970959;28;20937;-78
2021/01/26 11:45:59;;;;;;;1.70;1.60;;;4.00;98.20;;;;;;4968967;28;20469;-80
2021/01/26 11:48:25;;;;;;;1.70;1.60;;;4.10;98.20;;;;;;4969813;28;20542;-79
2021/01/26 11:50:52;;;;;;;1.63;1.40;;;4.10;98.20;;;;;;4968799;28;20486;-79
2021/01/26 11:53:21;;;;;;;1.67;1.50;;;4.10;98.20;;;;;;4976677;28;20948;-79
2021/01/26 11:55:48;;;;;;;1.60;1.40;;;4.20;98.20;;;;;;4962601;28;20553;-79
2021/01/26 11:58:16;;;;;;;1.70;1.60;;;4.20;98.20;;;;;;4974447;28;20469;-80
2021/01/26 12:00:43;;;;;;;1.67;1.40;;;4.30;98.20;;;;;;4970775;28;20497;-81
2021/01/26 12:03:10;;;;;;;1.70;1.50;;;4.30;98.20;;;;;;4971161;28;20462;-80
2021/01/26 12:05:38;;;;;;;1.70;1.40;;;4.40;98.20;;;;;;4974319;28;20474;-80
2021/01/26 12:08:06;;;;;;;1.60;1.33;;;4.40;98.20;;;;;;4970802;28;20477;-80
2021/01/26 12:10:33;;;;;;;1.70;1.57;;;4.40;98.20;;;;;;4972101;28;20525;-80
2021/01/26 12:13:00;;;;;;;1.70;1.60;;;4.50;98.20;;;;;;4971235;28;20988;-79
2021/01/26 12:15:31;;;;;;;1.70;1.50;;;4.50;98.20;;;;;;4971271;28;20477;-79
2021/01/26 12:17:58;;;;;;;1.63;1.40;;;4.50;98.20;;;;;;4969332;28;20806;-79
2021/01/26 12:20:25;;;;;;;1.67;1.40;;;4.50;98.20;;;;;;4970879;28;20920;-79
2021/01/26 12:22:53;;;;;;;1.70;1.43;;;4.50;98.20;;;;;;4965812;28;20458;-79
2021/01/26 12:25:19;;;;;;;1.67;1.40;;;4.60;98.20;;;;;;4971840;28;20466;-79
2021/01/26 12:27:46;;;;;;;1.70;1.43;;;4.60;98.20;;;;;;4969894;28;20461;-78
2021/01/26 12:30:14;;;;;;;1.70;1.50;;;4.60;98.20;;;;;;4972590;28;20489;-79
2021/01/26 12:32:41;;;;;;;1.67;1.40;;;4.70;98.20;;;;;;4971203;28;20839;-79
2021/01/26 12:35:11;;;;;;;1.67;1.30;;;4.70;98.20;;;;;;4971926;28;20505;-79
2021/01/26 12:37:38;;;;;;;1.60;1.30;;;4.80;98.20;;;;;;4969139;28;20556;-77
2021/01/26 12:40:06;;;;;;;1.70;1.40;;;4.80;98.20;;;;;;4969231;28;21004;-77
2021/01/26 12:42:33;;;;;;;1.70;1.57;;;4.90;98.20;;;;;;4967554;28;20494;-77
2021/01/26 12:45:00;;;;;;;1.60;1.30;;;4.90;98.20;;;;;;4967408;28;20462;-79
2021/01/26 12:47:26;;;;;;;1.70;1.30;;;4.90;98.20;;;;;;4966934;28;20474;-77
2021/01/26 12:49:53;;;;;;;1.67;1.30;;;5.00;98.20;;;;;;4967187;28;20560;-77
2021/01/26 12:52:20;;;;;;;1.60;1.30;;;5.00;98.20;;;;;;4966874;28;20525;-77
2021/01/26 12:54:46;;;;;;;1.70;1.37;;;5.00;98.20;;;;;;4969118;28;20498;-77
2021/01/26 12:57:13;;;;;;;1.63;1.30;;;5.10;98.20;;;;;;4970014;28;20827;-78
2021/01/26 12:59:39;;;;;;;1.63;1.30;;;5.10;98.20;;;;;;4968949;28;20546;-78
2021/01/26 13:02:06;;;;;;;1.70;1.57;;;5.10;98.20;;;;;;4970415;28;20513;-78
2021/01/26 13:04:32;;;;;;;1.70;1.40;;;5.10;98.20;;;;;;4971223;28;20553;-78
2021/01/26 13:06:59;;;;;;;1.70;1.30;;;5.10;98.20;;;;;;4973134;28;20980;-77
2021/01/26 13:09:26;;;;;;;1.60;1.30;;;5.20;98.20;;;;;;4974495;28;20769;-78
2021/01/26 13:11:52;;;;;;;1.60;1.30;;;5.20;98.20;;;;;;4971126;28;20494;-78
2021/01/26 13:14:19;;;;;;;1.70;1.47;;;5.20;98.20;;;;;;4972495;28;20549;-77
2021/01/26 13:16:45;;;;;;;1.70;1.50;;;5.30;98.20;;;;;;4972654;28;20470;-78
2021/01/26 13:19:12;;;;;;;1.63;1.30;;;5.40;98.20;;;;;;4971740;28;20875;-78
2021/01/26 13:21:38;;;;;;;1.70;1.50;;;5.50;98.20;;;;;;4973283;28;21063;-80
2021/01/26 13:24:06;;;;;;;1.70;1.33;;;5.50;98.20;;;;;;4972676;28;20469;-78
2021/01/26 13:26:33;;;;;;;1.70;1.40;;;5.60;98.20;;;;;;4972960;28;20472;-80